sensor_id;sensor_type;location;lat;lon;timestamp;temperature;humidity
14705;DHT22;7442;50.840;3.396;2022-08-03T00:00:50;28.10;53.10
14705;DHT22;7442;50.840;3.396;2022-08-03T00:03:36;28.00;53.00
14705;DHT22;7442;50.840;3.396;2022-08-03T00:06:23;28.00;53.00
14705;DHT22;7442;50.840;3.396;2022-08-03T00:09:10;28.00;53.00
14705;DHT22;7442;50.840;3.396;2022-08-03T00:11:56;28.10;53.00
14705;DHT22;7442;50.840;3.396;2022-08-03T00:14:42;28.10;53.00
14705;DHT22;7442;50.840;3.396;2022-08-03T00:17:29;28.10;52.90
14705;DHT22;7442;50.840;3.396;2022-08-03T00:20:15;28.10;52.80
14705;DHT22;7442;50.840;3.396;2022-08-03T00:23:02;28.10;52.80
14705;DHT22;7442;50.840;3.396;2022-08-03T00:25:53;28.10;52.80
14705;DHT22;7442;50.840;3.396;2022-08-03T00:28:39;28.10;52.90
14705;DHT22;7442;50.840;3.396;2022-08-03T00:31:26;28.10;52.80
14705;DHT22;7442;50.840;3.396;2022-08-03T00:34:13;28.10;52.70
14705;DHT22;7442;50.840;3.396;2022-08-03T00:36:59;28.10;52.70
14705;DHT22;7442;50.840;3.396;2022-08-03T00:39:45;28.10;52.70
14705;DHT22;7442;50.840;3.396;2022-08-03T00:42:32;28.10;52.80
14705;DHT22;7442;50.840;3.396;2022-08-03T00:45:20;28.10;52.80
14705;DHT22;7442;50.840;3.396;2022-08-03T00:48:08;28.10;52.70
14705;DHT22;7442;50.840;3.396;2022-08-03T00:50:54;28.20;52.60
14705;DHT22;7442;50.840;3.396;2022-08-03T00:53:41;28.20;52.50
14705;DHT22;7442;50.840;3.396;2022-08-03T00:56:28;28.10;52.50
14705;DHT22;7442;50.840;3.396;2022-08-03T00:59:18;28.10;52.60
14705;DHT22;7442;50.840;3.396;2022-08-03T01:02:04;28.10;52.70
14705;DHT22;7442;50.840;3.396;2022-08-03T01:04:51;28.10;52.70
14705;DHT22;7442;50.840;3.396;2022-08-03T01:11:05;28.00;52.60
14705;DHT22;7442;50.840;3.396;2022-08-03T01:14:23;28.00;52.70
14705;DHT22;7442;50.840;3.396;2022-08-03T01:17:20;27.90;52.80
14705;DHT22;7442;50.840;3.396;2022-08-03T01:20:13;27.90;52.80
14705;DHT22;7442;50.840;3.396;2022-08-03T01:24:02;27.90;52.80
14705;DHT22;7442;50.840;3.396;2022-08-03T01:32:17;27.90;52.90
14705;DHT22;7442;50.840;3.396;2022-08-03T01:35:15;27.90;52.80
14705;DHT22;7442;50.840;3.396;2022-08-03T01:38:09;27.90;52.80
14705;DHT22;7442;50.840;3.396;2022-08-03T01:40:55;27.90;52.70
14705;DHT22;7442;50.840;3.396;2022-08-03T01:43:43;27.90;52.80
14705;DHT22;7442;50.840;3.396;2022-08-03T01:46:32;27.90;52.70
14705;DHT22;7442;50.840;3.396;2022-08-03T01:49:19;27.90;52.70
14705;DHT22;7442;50.840;3.396;2022-08-03T01:52:07;27.90;52.10
14705;DHT22;7442;50.840;3.396;2022-08-03T01:54:54;27.90;52.80
14705;DHT22;7442;50.840;3.396;2022-08-03T01:57:42;27.90;52.80
14705;DHT22;7442;50.840;3.396;2022-08-03T02:00:31;27.90;52.70
14705;DHT22;7442;50.840;3.396;2022-08-03T02:03:19;27.90;52.70
14705;DHT22;7442;50.840;3.396;2022-08-03T02:06:09;27.90;52.60
14705;DHT22;7442;50.840;3.396;2022-08-03T02:08:56;27.90;52.50
14705;DHT22;7442;50.840;3.396;2022-08-03T02:11:44;27.90;52.60
14705;DHT22;7442;50.840;3.396;2022-08-03T02:14:31;27.90;52.60
14705;DHT22;7442;50.840;3.396;2022-08-03T02:17:19;27.90;52.70
14705;DHT22;7442;50.840;3.396;2022-08-03T02:20:07;27.80;52.70
14705;DHT22;7442;50.840;3.396;2022-08-03T02:22:55;27.80;52.70
14705;DHT22;7442;50.840;3.396;2022-08-03T02:25:50;27.80;52.80
14705;DHT22;7442;50.840;3.396;2022-08-03T02:28:36;27.80;52.80
14705;DHT22;7442;50.840;3.396;2022-08-03T02:31:26;27.80;52.80
14705;DHT22;7442;50.840;3.396;2022-08-03T02:34:13;27.80;52.80
14705;DHT22;7442;50.840;3.396;2022-08-03T02:37:02;27.80;52.60
14705;DHT22;7442;50.840;3.396;2022-08-03T02:39:49;27.80;52.60
14705;DHT22;7442;50.840;3.396;2022-08-03T02:42:38;27.80;52.60
14705;DHT22;7442;50.840;3.396;2022-08-03T02:45:27;27.80;52.60
14705;DHT22;7442;50.840;3.396;2022-08-03T02:48:19;27.80;52.70
14705;DHT22;7442;50.840;3.396;2022-08-03T02:51:07;27.70;52.70
14705;DHT22;7442;50.840;3.396;2022-08-03T02:53:55;27.70;52.80
14705;DHT22;7442;50.840;3.396;2022-08-03T02:56:46;27.70;52.80
14705;DHT22;7442;50.840;3.396;2022-08-03T02:59:33;27.70;52.80
14705;DHT22;7442;50.840;3.396;2022-08-03T03:02:20;27.70;52.70
14705;DHT22;7442;50.840;3.396;2022-08-03T03:05:08;27.80;52.60
14705;DHT22;7442;50.840;3.396;2022-08-03T03:07:55;27.80;52.60
14705;DHT22;7442;50.840;3.396;2022-08-03T03:10:43;27.70;52.60
14705;DHT22;7442;50.840;3.396;2022-08-03T03:13:30;27.70;52.70
14705;DHT22;7442;50.840;3.396;2022-08-03T03:16:17;27.70;52.70
14705;DHT22;7442;50.840;3.396;2022-08-03T03:19:07;27.60;52.60
14705;DHT22;7442;50.840;3.396;2022-08-03T03:21:54;27.70;52.70
14705;DHT22;7442;50.840;3.396;2022-08-03T03:24:42;27.60;52.70
14705;DHT22;7442;50.840;3.396;2022-08-03T03:27:30;27.60;52.80
14705;DHT22;7442;50.840;3.396;2022-08-03T03:30:16;27.60;52.80
14705;DHT22;7442;50.840;3.396;2022-08-03T03:33:10;27.70;52.80
14705;DHT22;7442;50.840;3.396;2022-08-03T03:35:58;27.60;52.70
14705;DHT22;7442;50.840;3.396;2022-08-03T03:38:44;27.60;52.70
14705;DHT22;7442;50.840;3.396;2022-08-03T03:41:31;27.60;52.70
14705;DHT22;7442;50.840;3.396;2022-08-03T03:44:18;27.60;52.70
14705;DHT22;7442;50.840;3.396;2022-08-03T03:47:04;27.60;52.60
14705;DHT22;7442;50.840;3.396;2022-08-03T03:49:58;27.60;52.60
14705;DHT22;7442;50.840;3.396;2022-08-03T03:52:44;27.70;52.70
14705;DHT22;7442;50.840;3.396;2022-08-03T03:55:32;27.60;52.70
14705;DHT22;7442;50.840;3.396;2022-08-03T03:58:19;27.60;52.60
14705;DHT22;7442;50.840;3.396;2022-08-03T04:01:06;27.60;52.60
14705;DHT22;7442;50.840;3.396;2022-08-03T04:03:53;27.60;52.50
14705;DHT22;7442;50.840;3.396;2022-08-03T04:06:40;27.60;52.50
14705;DHT22;7442;50.840;3.396;2022-08-03T04:09:46;27.60;52.50
14705;DHT22;7442;50.840;3.396;2022-08-03T04:12:52;27.60;52.60
14705;DHT22;7442;50.840;3.396;2022-08-03T04:15:48;27.60;52.70
14705;DHT22;7442;50.840;3.396;2022-08-03T04:18:37;27.50;52.70
14705;DHT22;7442;50.840;3.396;2022-08-03T04:21:24;27.50;52.70
14705;DHT22;7442;50.840;3.396;2022-08-03T04:24:19;27.50;52.70
14705;DHT22;7442;50.840;3.396;2022-08-03T04:27:10;27.40;52.90
14705;DHT22;7442;50.840;3.396;2022-08-03T04:29:58;27.40;53.00
14705;DHT22;7442;50.840;3.396;2022-08-03T04:32:47;27.40;53.00
14705;DHT22;7442;50.840;3.396;2022-08-03T04:35:43;27.40;53.00
14705;DHT22;7442;50.840;3.396;2022-08-03T04:38:39;27.40;53.00
14705;DHT22;7442;50.840;3.396;2022-08-03T04:41:25;27.30;53.00
14705;DHT22;7442;50.840;3.396;2022-08-03T04:44:12;27.30;53.10
14705;DHT22;7442;50.840;3.396;2022-08-03T04:46:59;27.30;53.00
14705;DHT22;7442;50.840;3.396;2022-08-03T04:49:45;27.40;53.00
14705;DHT22;7442;50.840;3.396;2022-08-03T04:52:34;27.40;52.90
14705;DHT22;7442;50.840;3.396;2022-08-03T04:55:30;27.30;52.90
14705;DHT22;7442;50.840;3.396;2022-08-03T04:58:23;27.30;52.90
14705;DHT22;7442;50.840;3.396;2022-08-03T05:01:16;27.40;52.90
14705;DHT22;7442;50.840;3.396;2022-08-03T05:04:04;27.40;52.70
14705;DHT22;7442;50.840;3.396;2022-08-03T05:06:52;27.40;53.50
14705;DHT22;7442;50.840;3.396;2022-08-03T05:09:39;27.40;52.80
14705;DHT22;7442;50.840;3.396;2022-08-03T05:12:25;27.40;52.90
14705;DHT22;7442;50.840;3.396;2022-08-03T05:15:12;27.40;52.80
14705;DHT22;7442;50.840;3.396;2022-08-03T05:17:58;27.40;52.60
14705;DHT22;7442;50.840;3.396;2022-08-03T05:20:45;27.30;53.40
14705;DHT22;7442;50.840;3.396;2022-08-03T05:23:31;27.20;53.90
14705;DHT22;7442;50.840;3.396;2022-08-03T05:26:17;27.00;54.50
14705;DHT22;7442;50.840;3.396;2022-08-03T05:29:04;26.90;54.80
14705;DHT22;7442;50.840;3.396;2022-08-03T05:31:50;26.80;55.10
14705;DHT22;7442;50.840;3.396;2022-08-03T05:34:37;26.80;55.50
14705;DHT22;7442;50.840;3.396;2022-08-03T05:37:23;26.70;55.70
14705;DHT22;7442;50.840;3.396;2022-08-03T05:40:11;26.70;55.90
14705;DHT22;7442;50.840;3.396;2022-08-03T05:42:59;26.70;56.10
14705;DHT22;7442;50.840;3.396;2022-08-03T05:45:47;26.70;56.00
14705;DHT22;7442;50.840;3.396;2022-08-03T05:48:40;26.70;56.20
14705;DHT22;7442;50.840;3.396;2022-08-03T05:51:27;26.70;57.10
14705;DHT22;7442;50.840;3.396;2022-08-03T05:54:13;26.70;56.50
14705;DHT22;7442;50.840;3.396;2022-08-03T05:56:59;26.70;56.50
14705;DHT22;7442;50.840;3.396;2022-08-03T05:59:46;26.70;56.80
14705;DHT22;7442;50.840;3.396;2022-08-03T06:02:33;26.60;56.90
14705;DHT22;7442;50.840;3.396;2022-08-03T06:05:19;26.60;57.10
14705;DHT22;7442;50.840;3.396;2022-08-03T06:08:06;26.60;57.20
14705;DHT22;7442;50.840;3.396;2022-08-03T06:10:54;26.70;57.10
14705;DHT22;7442;50.840;3.396;2022-08-03T06:13:40;26.70;57.40
14705;DHT22;7442;50.840;3.396;2022-08-03T06:16:27;26.60;57.50
14705;DHT22;7442;50.840;3.396;2022-08-03T06:19:13;26.60;57.80
14705;DHT22;7442;50.840;3.396;2022-08-03T06:22:00;26.50;57.90
14705;DHT22;7442;50.840;3.396;2022-08-03T06:24:46;26.50;57.90
14705;DHT22;7442;50.840;3.396;2022-08-03T06:27:33;26.60;58.10
14705;DHT22;7442;50.840;3.396;2022-08-03T06:30:21;26.50;58.10
14705;DHT22;7442;50.840;3.396;2022-08-03T06:33:08;26.50;58.30
14705;DHT22;7442;50.840;3.396;2022-08-03T06:35:54;26.50;58.50
14705;DHT22;7442;50.840;3.396;2022-08-03T06:38:41;26.50;58.80
14705;DHT22;7442;50.840;3.396;2022-08-03T06:41:27;26.50;58.80
14705;DHT22;7442;50.840;3.396;2022-08-03T06:44:16;26.60;58.60
14705;DHT22;7442;50.840;3.396;2022-08-03T06:47:02;26.80;58.00
14705;DHT22;7442;50.840;3.396;2022-08-03T06:49:48;26.90;57.70
14705;DHT22;7442;50.840;3.396;2022-08-03T06:52:35;26.90;57.70
14705;DHT22;7442;50.840;3.396;2022-08-03T06:55:21;27.00;57.40
14705;DHT22;7442;50.840;3.396;2022-08-03T06:58:08;27.10;57.20
14705;DHT22;7442;50.840;3.396;2022-08-03T07:00:54;27.00;57.80
14705;DHT22;7442;50.840;3.396;2022-08-03T07:03:44;27.00;57.40
14705;DHT22;7442;50.840;3.396;2022-08-03T07:06:31;27.10;57.20
14705;DHT22;7442;50.840;3.396;2022-08-03T07:09:24;27.20;56.80
14705;DHT22;7442;50.840;3.396;2022-08-03T07:12:11;27.20;56.30
14705;DHT22;7442;50.840;3.396;2022-08-03T07:14:58;27.30;56.00
14705;DHT22;7442;50.840;3.396;2022-08-03T07:17:45;27.30;55.90
14705;DHT22;7442;50.840;3.396;2022-08-03T07:20:32;27.30;56.30
14705;DHT22;7442;50.840;3.396;2022-08-03T07:23:25;27.30;56.40
14705;DHT22;7442;50.840;3.396;2022-08-03T07:26:11;27.30;56.60
14705;DHT22;7442;50.840;3.396;2022-08-03T07:28:58;27.40;55.70
14705;DHT22;7442;50.840;3.396;2022-08-03T07:31:45;27.50;55.70
14705;DHT22;7442;50.840;3.396;2022-08-03T07:34:32;27.40;55.40
14705;DHT22;7442;50.840;3.396;2022-08-03T07:37:19;27.50;55.30
14705;DHT22;7442;50.840;3.396;2022-08-03T07:40:06;27.50;55.20
14705;DHT22;7442;50.840;3.396;2022-08-03T07:42:52;27.50;55.30
14705;DHT22;7442;50.840;3.396;2022-08-03T07:45:40;27.60;55.20
14705;DHT22;7442;50.840;3.396;2022-08-03T07:48:26;27.60;55.00
14705;DHT22;7442;50.840;3.396;2022-08-03T07:51:15;27.70;54.80
14705;DHT22;7442;50.840;3.396;2022-08-03T07:54:01;27.80;54.90
14705;DHT22;7442;50.840;3.396;2022-08-03T07:56:48;27.80;54.70
14705;DHT22;7442;50.840;3.396;2022-08-03T07:59:34;27.90;54.50
14705;DHT22;7442;50.840;3.396;2022-08-03T08:02:24;27.90;54.60
14705;DHT22;7442;50.840;3.396;2022-08-03T08:05:11;27.80;55.20
14705;DHT22;7442;50.840;3.396;2022-08-03T08:07:58;27.90;54.60
14705;DHT22;7442;50.840;3.396;2022-08-03T08:10:46;28.00;54.10
14705;DHT22;7442;50.840;3.396;2022-08-03T08:13:33;28.10;54.00
14705;DHT22;7442;50.840;3.396;2022-08-03T08:16:19;28.20;53.80
14705;DHT22;7442;50.840;3.396;2022-08-03T08:19:05;28.10;53.70
14705;DHT22;7442;50.840;3.396;2022-08-03T08:21:51;28.10;53.70
14705;DHT22;7442;50.840;3.396;2022-08-03T08:24:38;28.20;53.40
14705;DHT22;7442;50.840;3.396;2022-08-03T08:27:31;28.30;53.30
14705;DHT22;7442;50.840;3.396;2022-08-03T08:30:24;28.40;53.10
14705;DHT22;7442;50.840;3.396;2022-08-03T08:33:11;28.40;53.00
14705;DHT22;7442;50.840;3.396;2022-08-03T08:35:57;28.40;53.10
14705;DHT22;7442;50.840;3.396;2022-08-03T08:38:44;28.50;53.00
14705;DHT22;7442;50.840;3.396;2022-08-03T08:41:30;28.60;52.70
14705;DHT22;7442;50.840;3.396;2022-08-03T08:44:19;28.70;52.50
14705;DHT22;7442;50.840;3.396;2022-08-03T08:47:07;28.70;52.20
14705;DHT22;7442;50.840;3.396;2022-08-03T08:49:55;28.80;52.10
14705;DHT22;7442;50.840;3.396;2022-08-03T08:52:43;28.70;52.30
14705;DHT22;7442;50.840;3.396;2022-08-03T08:55:31;28.70;52.20
14705;DHT22;7442;50.840;3.396;2022-08-03T08:58:32;28.70;52.20
14705;DHT22;7442;50.840;3.396;2022-08-03T09:01:15;28.80;52.00
14705;DHT22;7442;50.840;3.396;2022-08-03T09:04:08;28.90;51.90
14705;DHT22;7442;50.840;3.396;2022-08-03T09:06:51;29.00;51.70
14705;DHT22;7442;50.840;3.396;2022-08-03T09:09:38;29.10;51.40
14705;DHT22;7442;50.840;3.396;2022-08-03T09:12:42;29.10;51.40
14705;DHT22;7442;50.840;3.396;2022-08-03T09:15:31;29.00;51.70
14705;DHT22;7442;50.840;3.396;2022-08-03T09:18:27;29.00;52.00
14705;DHT22;7442;50.840;3.396;2022-08-03T09:21:21;29.20;51.40
14705;DHT22;7442;50.840;3.396;2022-08-03T09:24:05;29.20;51.00
14705;DHT22;7442;50.840;3.396;2022-08-03T09:26:51;29.20;51.00
14705;DHT22;7442;50.840;3.396;2022-08-03T09:29:38;29.30;50.60
14705;DHT22;7442;50.840;3.396;2022-08-03T09:32:25;29.50;50.40
14705;DHT22;7442;50.840;3.396;2022-08-03T09:35:24;29.50;50.70
14705;DHT22;7442;50.840;3.396;2022-08-03T09:38:14;29.50;50.90
14705;DHT22;7442;50.840;3.396;2022-08-03T09:41:02;29.50;50.60
14705;DHT22;7442;50.840;3.396;2022-08-03T09:43:51;29.60;50.00
14705;DHT22;7442;50.840;3.396;2022-08-03T09:46:51;29.70;50.00
14705;DHT22;7442;50.840;3.396;2022-08-03T09:49:39;29.70;50.00
14705;DHT22;7442;50.840;3.396;2022-08-03T09:52:31;29.60;50.00
14705;DHT22;7442;50.840;3.396;2022-08-03T09:55:18;29.50;50.60
14705;DHT22;7442;50.840;3.396;2022-08-03T09:58:09;29.50;50.40
14705;DHT22;7442;50.840;3.396;2022-08-03T10:01:02;29.70;50.10
14705;DHT22;7442;50.840;3.396;2022-08-03T10:03:56;29.70;50.00
14705;DHT22;7442;50.840;3.396;2022-08-03T10:06:38;29.80;50.10
14705;DHT22;7442;50.840;3.396;2022-08-03T10:09:25;29.70;50.00
14705;DHT22;7442;50.840;3.396;2022-08-03T10:12:12;29.70;50.20
14705;DHT22;7442;50.840;3.396;2022-08-03T10:14:59;29.90;50.20
14705;DHT22;7442;50.840;3.396;2022-08-03T10:17:45;29.90;49.90
14705;DHT22;7442;50.840;3.396;2022-08-03T10:20:36;29.80;50.10
14705;DHT22;7442;50.840;3.396;2022-08-03T10:23:22;29.80;50.10
14705;DHT22;7442;50.840;3.396;2022-08-03T10:26:11;29.90;50.10
14705;DHT22;7442;50.840;3.396;2022-08-03T10:29:01;29.90;50.20
14705;DHT22;7442;50.840;3.396;2022-08-03T10:31:48;29.80;50.10
14705;DHT22;7442;50.840;3.396;2022-08-03T10:34:38;29.80;50.10
14705;DHT22;7442;50.840;3.396;2022-08-03T10:37:26;29.80;50.10
14705;DHT22;7442;50.840;3.396;2022-08-03T10:40:15;29.80;50.10
14705;DHT22;7442;50.840;3.396;2022-08-03T10:43:09;29.80;50.20
14705;DHT22;7442;50.840;3.396;2022-08-03T10:45:55;29.80;50.10
14705;DHT22;7442;50.840;3.396;2022-08-03T10:48:43;29.90;50.00
14705;DHT22;7442;50.840;3.396;2022-08-03T10:51:29;29.90;50.20
14705;DHT22;7442;50.840;3.396;2022-08-03T10:57:53;29.90;50.20
14705;DHT22;7442;50.840;3.396;2022-08-03T11:00:49;29.90;49.90
14705;DHT22;7442;50.840;3.396;2022-08-03T11:06:41;30.10;49.70
14705;DHT22;7442;50.840;3.396;2022-08-03T11:09:39;30.10;50.30
14705;DHT22;7442;50.840;3.396;2022-08-03T11:12:28;30.00;49.90
14705;DHT22;7442;50.840;3.396;2022-08-03T11:15:17;30.10;49.90
14705;DHT22;7442;50.840;3.396;2022-08-03T11:18:07;30.00;50.50
14705;DHT22;7442;50.840;3.396;2022-08-03T11:20:58;30.00;50.10
14705;DHT22;7442;50.840;3.396;2022-08-03T11:23:46;30.20;49.60
14705;DHT22;7442;50.840;3.396;2022-08-03T11:26:34;30.30;49.60
14705;DHT22;7442;50.840;3.396;2022-08-03T11:29:28;30.30;49.80
14705;DHT22;7442;50.840;3.396;2022-08-03T11:35:21;30.20;49.80
14705;DHT22;7442;50.840;3.396;2022-08-03T11:38:10;30.30;49.40
14705;DHT22;7442;50.840;3.396;2022-08-03T11:40:57;30.40;49.20
14705;DHT22;7442;50.840;3.396;2022-08-03T11:43:51;30.40;49.50
14705;DHT22;7442;50.840;3.396;2022-08-03T11:46:37;30.30;49.60
14705;DHT22;7442;50.840;3.396;2022-08-03T11:49:25;30.30;49.80
14705;DHT22;7442;50.840;3.396;2022-08-03T11:52:11;30.30;50.20
14705;DHT22;7442;50.840;3.396;2022-08-03T11:55:00;30.30;50.40
14705;DHT22;7442;50.840;3.396;2022-08-03T11:57:47;30.40;50.30
14705;DHT22;7442;50.840;3.396;2022-08-03T12:00:34;30.30;50.00
14705;DHT22;7442;50.840;3.396;2022-08-03T12:03:20;30.50;49.90
14705;DHT22;7442;50.840;3.396;2022-08-03T12:06:12;30.50;49.70
14705;DHT22;7442;50.840;3.396;2022-08-03T12:08:59;30.40;49.60
14705;DHT22;7442;50.840;3.396;2022-08-03T12:11:49;30.50;49.80
14705;DHT22;7442;50.840;3.396;2022-08-03T12:14:45;30.40;49.70
14705;DHT22;7442;50.840;3.396;2022-08-03T12:17:39;30.60;49.50
14705;DHT22;7442;50.840;3.396;2022-08-03T12:20:29;30.60;49.20
14705;DHT22;7442;50.840;3.396;2022-08-03T12:23:16;30.50;49.40
14705;DHT22;7442;50.840;3.396;2022-08-03T12:26:08;30.50;49.40
14705;DHT22;7442;50.840;3.396;2022-08-03T12:28:57;30.60;49.30
14705;DHT22;7442;50.840;3.396;2022-08-03T12:31:43;30.70;49.20
14705;DHT22;7442;50.840;3.396;2022-08-03T12:34:49;30.70;48.90
14705;DHT22;7442;50.840;3.396;2022-08-03T12:37:35;30.70;48.60
14705;DHT22;7442;50.840;3.396;2022-08-03T12:40:25;30.70;48.70
14705;DHT22;7442;50.840;3.396;2022-08-03T12:43:13;30.60;48.50
14705;DHT22;7442;50.840;3.396;2022-08-03T12:46:14;30.70;48.30
14705;DHT22;7442;50.840;3.396;2022-08-03T12:49:06;30.80;48.10
14705;DHT22;7442;50.840;3.396;2022-08-03T12:51:54;30.80;47.90
14705;DHT22;7442;50.840;3.396;2022-08-03T12:54:57;30.70;48.00
14705;DHT22;7442;50.840;3.396;2022-08-03T12:57:44;30.70;48.10
14705;DHT22;7442;50.840;3.396;2022-08-03T13:00:30;30.70;48.30
14705;DHT22;7442;50.840;3.396;2022-08-03T13:03:16;30.70;48.40
14705;DHT22;7442;50.840;3.396;2022-08-03T13:06:09;30.70;48.20
14705;DHT22;7442;50.840;3.396;2022-08-03T13:09:04;30.80;48.20
14705;DHT22;7442;50.840;3.396;2022-08-03T13:12:08;30.70;48.30
14705;DHT22;7442;50.840;3.396;2022-08-03T13:14:57;30.70;48.40
14705;DHT22;7442;50.840;3.396;2022-08-03T13:17:43;30.80;48.20
14705;DHT22;7442;50.840;3.396;2022-08-03T13:20:32;30.80;48.20
14705;DHT22;7442;50.840;3.396;2022-08-03T13:23:19;30.70;48.40
14705;DHT22;7442;50.840;3.396;2022-08-03T13:26:05;30.80;48.10
14705;DHT22;7442;50.840;3.396;2022-08-03T13:28:51;30.80;48.30
14705;DHT22;7442;50.840;3.396;2022-08-03T13:31:38;30.80;48.20
14705;DHT22;7442;50.840;3.396;2022-08-03T13:34:24;30.80;48.10
14705;DHT22;7442;50.840;3.396;2022-08-03T13:37:11;30.70;48.00
14705;DHT22;7442;50.840;3.396;2022-08-03T13:39:59;30.80;47.90
14705;DHT22;7442;50.840;3.396;2022-08-03T13:42:45;30.80;47.90
14705;DHT22;7442;50.840;3.396;2022-08-03T13:45:32;30.80;47.90
14705;DHT22;7442;50.840;3.396;2022-08-03T13:48:18;30.90;47.90
14705;DHT22;7442;50.840;3.396;2022-08-03T13:51:05;31.00;47.80
14705;DHT22;7442;50.840;3.396;2022-08-03T13:53:51;30.90;47.80
14705;DHT22;7442;50.840;3.396;2022-08-03T13:56:38;30.90;47.70
14705;DHT22;7442;50.840;3.396;2022-08-03T13:59:27;30.80;47.90
14705;DHT22;7442;50.840;3.396;2022-08-03T14:02:14;30.90;48.00
14705;DHT22;7442;50.840;3.396;2022-08-03T14:05:00;30.90;47.90
14705;DHT22;7442;50.840;3.396;2022-08-03T14:07:47;30.90;48.00
14705;DHT22;7442;50.840;3.396;2022-08-03T14:10:35;30.80;47.90
14705;DHT22;7442;50.840;3.396;2022-08-03T14:13:22;30.80;47.80
14705;DHT22;7442;50.840;3.396;2022-08-03T14:16:09;30.90;47.80
14705;DHT22;7442;50.840;3.396;2022-08-03T14:18:55;31.10;47.40
14705;DHT22;7442;50.840;3.396;2022-08-03T14:21:42;31.10;47.90
14705;DHT22;7442;50.840;3.396;2022-08-03T14:24:29;31.20;47.10
14705;DHT22;7442;50.840;3.396;2022-08-03T14:27:15;31.10;47.20
14705;DHT22;7442;50.840;3.396;2022-08-03T14:30:02;31.10;47.10
14705;DHT22;7442;50.840;3.396;2022-08-03T14:32:48;31.20;47.10
14705;DHT22;7442;50.840;3.396;2022-08-03T14:35:35;31.20;46.90
14705;DHT22;7442;50.840;3.396;2022-08-03T14:38:23;31.30;46.90
14705;DHT22;7442;50.840;3.396;2022-08-03T14:41:16;31.20;47.20
14705;DHT22;7442;50.840;3.396;2022-08-03T14:44:03;31.20;47.00
14705;DHT22;7442;50.840;3.396;2022-08-03T14:46:49;31.20;46.90
14705;DHT22;7442;50.840;3.396;2022-08-03T14:49:35;31.30;46.80
14705;DHT22;7442;50.840;3.396;2022-08-03T14:52:22;31.30;46.60
14705;DHT22;7442;50.840;3.396;2022-08-03T14:55:09;31.30;46.40
14705;DHT22;7442;50.840;3.396;2022-08-03T14:57:55;31.30;46.40
14705;DHT22;7442;50.840;3.396;2022-08-03T15:00:42;31.30;46.40
14705;DHT22;7442;50.840;3.396;2022-08-03T15:03:28;31.30;46.20
14705;DHT22;7442;50.840;3.396;2022-08-03T15:06:14;31.30;46.30
14705;DHT22;7442;50.840;3.396;2022-08-03T15:09:01;31.30;46.50
14705;DHT22;7442;50.840;3.396;2022-08-03T15:11:47;31.30;46.60
14705;DHT22;7442;50.840;3.396;2022-08-03T15:14:33;31.30;46.20
14705;DHT22;7442;50.840;3.396;2022-08-03T15:17:20;31.40;45.90
14705;DHT22;7442;50.840;3.396;2022-08-03T15:20:06;31.50;46.20
14705;DHT22;7442;50.840;3.396;2022-08-03T15:22:53;31.50;46.00
14705;DHT22;7442;50.840;3.396;2022-08-03T15:25:40;31.50;46.20
14705;DHT22;7442;50.840;3.396;2022-08-03T15:28:27;31.40;46.10
14705;DHT22;7442;50.840;3.396;2022-08-03T15:31:13;31.50;46.00
14705;DHT22;7442;50.840;3.396;2022-08-03T15:34:00;31.40;46.00
14705;DHT22;7442;50.840;3.396;2022-08-03T15:36:46;31.50;45.90
14705;DHT22;7442;50.840;3.396;2022-08-03T15:39:33;31.40;45.80
14705;DHT22;7442;50.840;3.396;2022-08-03T15:42:19;31.40;46.00
14705;DHT22;7442;50.840;3.396;2022-08-03T15:45:06;31.20;46.20
14705;DHT22;7442;50.840;3.396;2022-08-03T15:47:53;31.30;46.20
14705;DHT22;7442;50.840;3.396;2022-08-03T15:50:39;31.30;46.10
14705;DHT22;7442;50.840;3.396;2022-08-03T15:53:26;31.20;46.20
14705;DHT22;7442;50.840;3.396;2022-08-03T15:56:12;31.20;46.40
14705;DHT22;7442;50.840;3.396;2022-08-03T15:58:59;31.20;46.50
14705;DHT22;7442;50.840;3.396;2022-08-03T16:01:46;31.20;46.60
14705;DHT22;7442;50.840;3.396;2022-08-03T16:04:37;31.20;46.40
14705;DHT22;7442;50.840;3.396;2022-08-03T16:07:23;31.10;46.50
14705;DHT22;7442;50.840;3.396;2022-08-03T16:10:36;31.20;46.50
14705;DHT22;7442;50.840;3.396;2022-08-03T16:13:23;31.30;46.10
14705;DHT22;7442;50.840;3.396;2022-08-03T16:16:09;31.40;46.10
14705;DHT22;7442;50.840;3.396;2022-08-03T16:18:56;31.40;46.70
14705;DHT22;7442;50.840;3.396;2022-08-03T16:21:42;31.30;46.50
14705;DHT22;7442;50.840;3.396;2022-08-03T16:24:29;31.40;46.80
14705;DHT22;7442;50.840;3.396;2022-08-03T16:27:15;31.50;46.70
14705;DHT22;7442;50.840;3.396;2022-08-03T16:30:03;31.40;46.60
14705;DHT22;7442;50.840;3.396;2022-08-03T16:32:50;31.50;46.30
14705;DHT22;7442;50.840;3.396;2022-08-03T16:35:37;31.50;45.40
14705;DHT22;7442;50.840;3.396;2022-08-03T16:38:29;31.50;45.70
14705;DHT22;7442;50.840;3.396;2022-08-03T16:41:16;31.50;45.40
14705;DHT22;7442;50.840;3.396;2022-08-03T16:44:03;31.50;45.40
14705;DHT22;7442;50.840;3.396;2022-08-03T16:46:49;31.50;45.60
14705;DHT22;7442;50.840;3.396;2022-08-03T16:49:35;31.30;45.50
14705;DHT22;7442;50.840;3.396;2022-08-03T16:52:22;31.30;45.60
14705;DHT22;7442;50.840;3.396;2022-08-03T16:55:08;31.20;45.60
14705;DHT22;7442;50.840;3.396;2022-08-03T16:57:56;31.10;45.80
14705;DHT22;7442;50.840;3.396;2022-08-03T17:00:45;31.10;46.00
14705;DHT22;7442;50.840;3.396;2022-08-03T17:03:32;31.10;46.00
14705;DHT22;7442;50.840;3.396;2022-08-03T17:06:20;31.10;46.10
14705;DHT22;7442;50.840;3.396;2022-08-03T17:09:09;31.10;46.20
14705;DHT22;7442;50.840;3.396;2022-08-03T17:11:55;31.00;46.50
14705;DHT22;7442;50.840;3.396;2022-08-03T17:14:42;31.00;46.60
14705;DHT22;7442;50.840;3.396;2022-08-03T17:17:30;30.90;46.60
14705;DHT22;7442;50.840;3.396;2022-08-03T17:20:17;31.00;46.80
14705;DHT22;7442;50.840;3.396;2022-08-03T17:24:07;30.90;46.80
14705;DHT22;7442;50.840;3.396;2022-08-03T17:26:02;30.90;46.90
14705;DHT22;7442;50.840;3.396;2022-08-03T17:28:51;31.00;46.80
14705;DHT22;7442;50.840;3.396;2022-08-03T17:31:38;31.00;46.80
14705;DHT22;7442;50.840;3.396;2022-08-03T17:34:24;30.90;46.90
14705;DHT22;7442;50.840;3.396;2022-08-03T17:37:12;30.90;47.00
14705;DHT22;7442;50.840;3.396;2022-08-03T17:39:59;30.90;47.10
14705;DHT22;7442;50.840;3.396;2022-08-03T17:42:46;30.80;47.20
14705;DHT22;7442;50.840;3.396;2022-08-03T17:45:33;30.90;47.30
14705;DHT22;7442;50.840;3.396;2022-08-03T17:48:19;30.80;47.20
14705;DHT22;7442;50.840;3.396;2022-08-03T17:51:15;30.90;47.40
14705;DHT22;7442;50.840;3.396;2022-08-03T17:54:11;31.00;47.50
14705;DHT22;7442;50.840;3.396;2022-08-03T17:57:18;31.00;47.60
14705;DHT22;7442;50.840;3.396;2022-08-03T18:00:06;31.00;47.80
14705;DHT22;7442;50.840;3.396;2022-08-03T18:03:22;31.00;48.10
14705;DHT22;7442;50.840;3.396;2022-08-03T18:06:17;31.00;48.40
14705;DHT22;7442;50.840;3.396;2022-08-03T18:09:06;31.10;48.60
14705;DHT22;7442;50.840;3.396;2022-08-03T18:11:57;31.00;48.80
14705;DHT22;7442;50.840;3.396;2022-08-03T18:14:47;31.10;49.40
14705;DHT22;7442;50.840;3.396;2022-08-03T18:17:37;31.10;49.30
14705;DHT22;7442;50.840;3.396;2022-08-03T18:20:25;31.00;49.90